Time;durP1;ratioP1;P1;durP2;ratioP2;P2;SDS_P1;SDS_P2;PMS_P1;PMS_P2;Temp;Humidity;BMP_temperature;BMP_pressure;BME280_temperature;BME280_humidity;BME280_pressure;Samples;Min_cycle;Max_cycle;Signal;HPM_P1;HPM_P2
2022/01/11 00:01:27;;;;;;;58.58;13.38;;;;;;;1.44;84.30;102992.84;4981052;28;20388;-76
2022/01/11 00:03:53;;;;;;;52.78;14.95;;;;;;;1.44;84.67;102995.44;4980673;28;20026;-75
2022/01/11 00:09:22;;;;;;;54.55;13.85;;;;;;;1.44;84.15;102999.75;4921459;29;20032;-75
2022/01/11 00:11:48;;;;;;;29.42;13.32;;;;;;;1.52;84.29;103003.00;4921277;28;20039;-75
2022/01/11 00:14:14;;;;;;;34.15;13.73;;;;;;;1.55;84.67;103005.84;4921542;29;20032;-76
2022/01/11 00:16:40;;;;;;;65.63;14.32;;;;;;;1.60;83.45;103010.66;4920803;29;20040;-76
2022/01/11 00:19:06;;;;;;;48.20;14.57;;;;;;;1.60;83.72;103015.84;4904236;29;20489;-75
2022/01/11 00:21:44;;;;;;;63.88;14.38;;;;;;;1.53;84.57;103020.44;4905513;29;20078;-76
2022/01/11 00:26:53;;;;;;;34.15;14.52;;;;;;;1.42;85.11;103014.34;4921282;29;20039;-75
2022/01/11 00:29:18;;;;;;;28.52;14.15;;;;;;;1.42;85.35;103020.47;4921169;29;20032;-75
2022/01/11 00:31:46;;;;;;;32.25;14.57;;;;;;;1.48;85.21;103020.06;4920926;29;20040;-75
2022/01/11 00:34:13;;;;;;;41.95;14.68;;;;;;;1.58;85.10;103026.94;4921016;29;20122;-76
2022/01/11 00:36:42;;;;;;;48.05;14.68;;;;;;;1.65;84.65;103027.56;4920697;29;20058;-75
2022/01/11 00:39:12;;;;;;;26.58;12.73;;;;;;;1.69;83.67;103034.84;4920709;29;20032;-78
2022/01/11 00:41:38;;;;;;;30.00;14.60;;;;;;;1.66;84.60;103031.97;4920952;29;20513;-75
2022/01/11 00:44:05;;;;;;;28.50;13.63;;;;;;;1.57;84.08;103017.28;4931616;28;20093;-76
2022/01/11 00:46:31;;;;;;;27.95;14.38;;;;;;;1.45;84.46;103017.19;4980766;28;20459;-74
2022/01/11 00:48:56;;;;;;;29.35;14.50;;;;;;;1.28;85.02;103010.59;4980287;28;20083;-75
2022/01/11 00:51:22;;;;;;;32.45;14.65;;;;;;;1.29;85.02;103008.91;4979911;28;20027;-75
2022/01/11 00:53:47;;;;;;;32.08;14.13;;;;;;;1.28;85.55;103009.69;4980150;28;20057;-75
2022/01/11 00:56:12;;;;;;;35.20;15.07;;;;;;;1.23;85.14;103007.59;4980254;28;20065;-76
2022/01/11 00:58:56;;;;;;;28.20;13.93;;;;;;;1.14;85.18;103009.44;4980402;28;20038;-75
2022/01/11 01:01:21;;;;;;;36.72;14.07;;;;;;;1.16;85.37;103013.09;4980553;28;20034;-76
2022/01/11 01:03:47;;;;;;;30.23;13.75;;;;;;;1.26;85.64;103017.38;4979917;28;20130;-76
2022/01/11 01:06:13;;;;;;;30.77;14.35;;;;;;;1.36;85.23;103022.56;4964983;28;20027;-75
2022/01/11 01:08:38;;;;;;;33.25;14.05;;;;;;;1.39;84.97;103025.41;4957458;29;20464;-76
2022/01/11 01:11:03;;;;;;;34.88;14.15;;;;;;;1.43;84.64;103037.00;4956317;29;20042;-77
2022/01/11 01:13:29;;;;;;;39.63;15.20;;;;;;;1.45;84.72;103025.91;4956351;29;20035;-76
2022/01/11 01:15:56;;;;;;;32.85;14.30;;;;;;;1.41;84.94;103034.28;4956189;29;20031;-76
2022/01/11 01:18:26;;;;;;;32.65;14.48;;;;;;;1.36;85.27;103027.75;4956297;29;20023;-76
2022/01/11 01:20:53;;;;;;;31.10;14.35;;;;;;;1.45;85.05;103022.41;4956183;29;20042;-76
2022/01/11 01:23:20;;;;;;;32.03;14.95;;;;;;;1.44;84.80;103012.78;4956043;29;20528;-76
2022/01/11 01:25:47;;;;;;;35.15;15.02;;;;;;;1.36;85.06;103016.44;4956103;29;20396;-75
2022/01/11 01:28:13;;;;;;;33.80;13.88;;;;;;;1.29;85.61;103025.44;4955857;29;20387;-75
2022/01/11 01:30:39;;;;;;;29.92;13.55;;;;;;;1.34;85.27;103026.75;4955997;28;20384;-76
2022/01/11 01:33:05;;;;;;;34.30;14.98;;;;;;;1.33;85.17;103030.13;4955830;29;20027;-76
2022/01/11 01:35:38;;;;;;;28.75;12.90;;;;;;;1.36;85.60;103032.97;4955786;29;20082;-75
2022/01/11 01:38:04;;;;;;;37.38;14.52;;;;;;;1.33;85.34;103031.81;4938591;29;20396;-76
2022/01/11 01:40:36;;;;;;;37.33;15.52;;;;;;;1.17;85.51;103033.16;4956065;29;20484;-76
2022/01/11 01:43:03;;;;;;;;;;;;;;;1.24;85.41;103025.06;4956152;29;20118;-76
2022/01/11 01:45:28;;;;;;;35.35;17.70;;;;;;;1.12;85.57;103030.94;4955742;29;19915;-76
2022/01/11 01:47:57;;;;;;;28.17;13.48;;;;;;;1.09;86.68;103038.50;4955670;29;20027;-76
2022/01/11 01:50:28;;;;;;;38.30;15.07;;;;;;;1.00;86.78;103039.53;4955862;29;20086;-77
2022/01/11 01:52:57;;;;;;;35.95;14.38;;;;;;;0.98;86.11;103037.56;4938360;29;20090;-75
2022/01/11 01:55:23;;;;;;;38.17;13.63;;;;;;;0.90;87.21;103031.75;4955437;29;20033;-75
2022/01/11 01:57:50;;;;;;;37.03;13.77;;;;;;;0.94;86.48;103033.81;4955304;29;20031;-76
2022/01/11 02:00:17;;;;;;;31.73;14.80;;;;;;;0.99;86.48;103034.22;4955433;29;20039;-76
2022/01/11 02:02:43;;;;;;;54.85;17.38;;;;;;;0.92;86.36;103040.56;4955118;28;20046;-76
2022/01/11 02:05:09;;;;;;;31.33;14.35;;;;;;;1.00;86.64;103038.63;4955410;29;20027;-76
2022/01/11 02:07:37;;;;;;;30.13;13.60;;;;;;;1.04;86.33;103035.50;4955402;29;20024;-76
2022/01/11 02:10:06;;;;;;;25.55;11.45;;;;;;;1.16;85.21;103035.63;4955382;29;20035;-76
2022/01/11 02:12:31;;;;;;;31.25;14.68;;;;;;;0.97;86.18;103048.78;4955143;29;20031;-76
2022/01/11 02:14:57;;;;;;;33.00;15.05;;;;;;;0.85;86.61;103042.53;4955289;29;20027;-76
2022/01/11 02:17:27;;;;;;;34.80;15.90;;;;;;;0.72;87.35;103033.66;4955101;29;20039;-76
2022/01/11 02:19:55;;;;;;;33.55;14.85;;;;;;;0.67;87.96;103041.88;4955258;29;20035;-76
2022/01/11 02:22:20;;;;;;;35.10;15.32;;;;;;;0.59;87.72;103045.50;4937972;29;20102;-76
2022/01/11 02:24:46;;;;;;;38.78;17.85;;;;;;;0.60;87.78;103050.84;4955218;29;20178;-76
2022/01/11 02:27:12;;;;;;;31.73;14.63;;;;;;;0.60;88.23;103058.66;4955131;29;20031;-77
2022/01/11 02:29:37;;;;;;;36.78;15.43;;;;;;;0.63;87.89;103051.09;4955096;29;20528;-76
2022/01/11 02:32:03;;;;;;;34.53;15.55;;;;;;;0.67;87.58;103045.38;4955101;29;20027;-74
2022/01/11 02:34:28;;;;;;;34.90;16.30;;;;;;;0.64;87.48;103050.34;4954942;29;20361;-76
2022/01/11 02:36:54;;;;;;;33.28;15.50;;;;;;;0.59;88.02;103064.59;4954953;29;20058;-76
2022/01/11 02:39:19;;;;;;;35.08;16.08;;;;;;;0.60;88.46;103075.91;4955115;29;20117;-75
2022/01/11 02:41:50;;;;;;;30.60;13.30;;;;;;;0.65;87.83;103072.97;4956391;28;20027;-76
2022/01/11 02:44:16;;;;;;;34.88;15.23;;;;;;;0.73;87.71;103078.84;4961531;28;20476;-75
2022/01/11 02:46:41;;;;;;;32.30;14.57;;;;;;;0.72;87.84;103075.28;4961432;29;20110;-75
2022/01/11 02:49:07;;;;;;;36.92;15.68;;;;;;;0.71;87.11;103083.88;4961372;29;20035;-76
2022/01/11 02:51:32;;;;;;;38.80;16.17;;;;;;;0.65;87.90;103075.56;4961295;28;20025;-75
2022/01/11 02:53:59;;;;;;;34.83;16.00;;;;;;;0.61;87.63;103076.06;4961347;29;20023;-76
2022/01/11 02:56:25;;;;;;;36.67;16.02;;;;;;;0.56;87.62;103081.63;4961059;29;20027;-76
2022/01/11 02:58:51;;;;;;;36.58;16.95;;;;;;;0.52;88.12;103076.97;4961206;29;20023;-75
2022/01/11 03:01:16;;;;;;;32.10;15.05;;;;;;;0.53;87.93;103086.59;4961081;29;20023;-76
2022/01/11 03:03:42;;;;;;;35.53;15.98;;;;;;;0.49;88.56;103085.41;4961199;28;20098;-75
2022/01/11 03:06:07;;;;;;;36.28;15.77;;;;;;;0.45;88.92;103092.03;4961138;29;20035;-76
2022/01/11 03:08:42;;;;;;;37.15;16.50;;;;;;;0.44;89.12;103094.50;4961190;28;20432;-76
2022/01/11 03:11:09;;;;;;;35.85;16.55;;;;;;;0.43;88.65;103090.09;4961058;28;20129;-76
2022/01/11 03:13:38;;;;;;;38.75;15.90;;;;;;;0.42;88.82;103091.75;4961191;28;20035;-76
2022/01/11 03:16:03;;;;;;;38.55;16.73;;;;;;;0.39;89.02;103088.00;4961023;29;20031;-76
2022/01/11 03:18:29;;;;;;;36.35;15.13;;;;;;;0.42;88.72;103083.03;4960978;28;20034;-75
2022/01/11 03:20:54;;;;;;;31.98;15.48;;;;;;;0.47;88.89;103081.75;4961124;28;20074;-75
2022/01/11 03:23:21;;;;;;;37.63;17.38;;;;;;;0.52;88.66;103089.97;4961018;28;20455;-75
2022/01/11 03:25:47;;;;;;;39.05;16.95;;;;;;;0.49;88.80;103083.72;4960962;28;20408;-76
2022/01/11 03:28:13;;;;;;;37.17;15.95;;;;;;;0.45;88.36;103089.44;4960889;29;20069;-76
2022/01/11 03:30:38;;;;;;;33.20;14.98;;;;;;;0.43;88.60;103100.50;4943796;29;20031;-75
2022/01/11 03:33:07;;;;;;;36.85;17.13;;;;;;;0.43;87.64;103092.69;4960847;28;20023;-75
2022/01/11 03:35:33;;;;;;;33.15;15.15;;;;;;;0.37;88.32;103081.72;4960897;29;20377;-75
2022/01/11 03:37:58;;;;;;;36.22;16.05;;;;;;;0.33;88.71;103075.34;4960846;28;20034;-75
2022/01/11 03:40:26;;;;;;;35.05;16.05;;;;;;;0.36;88.46;103072.13;4961030;29;20027;-74
2022/01/11 03:42:51;;;;;;;39.53;16.48;;;;;;;0.35;88.35;103076.41;4943573;29;20126;-74
2022/01/11 03:45:17;;;;;;;36.67;16.33;;;;;;;0.33;88.59;103071.84;4960953;28;20106;-74
2022/01/11 03:47:43;;;;;;;32.55;15.10;;;;;;;0.37;88.34;103068.72;4960883;29;20032;-75
2022/01/11 03:50:10;;;;;;;36.35;16.55;;;;;;;0.39;88.52;103075.00;4961047;28;20106;-74
2022/01/11 03:52:37;;;;;;;39.60;15.38;;;;;;;0.40;88.23;103072.50;4960776;29;20389;-75
2022/01/11 03:55:10;;;;;;;39.13;16.77;;;;;;;0.43;88.34;103088.41;4956624;29;20035;-75
2022/01/11 03:57:35;;;;;;;39.10;16.60;;;;;;;0.45;87.80;103097.22;4940337;29;20082;-74
2022/01/11 04:00:07;;;;;;;39.38;16.80;;;;;;;0.40;88.62;103090.72;4957867;29;20027;-75
2022/01/11 04:02:32;;;;;;;37.43;16.93;;;;;;;0.37;88.81;103085.25;4957074;29;20063;-73
2022/01/11 04:04:57;;;;;;;33.47;15.27;;;;;;;0.40;88.15;103087.22;4957642;29;20039;-74
2022/01/11 04:07:28;;;;;;;43.05;19.27;;;;;;;0.42;88.70;103090.84;4957515;29;20115;-75
2022/01/11 04:09:57;;;;;;;43.08;18.92;;;;;;;0.40;88.82;103089.81;4957339;29;20075;-74
2022/01/11 04:12:23;;;;;;;42.70;17.92;;;;;;;0.43;89.02;103098.81;4957708;29;20087;-72
2022/01/11 04:14:49;;;;;;;42.40;18.65;;;;;;;0.36;88.67;103098.13;4957439;29;20031;-74
2022/01/11 04:17:15;;;;;;;42.03;17.50;;;;;;;0.35;88.95;103104.09;4957205;29;20035;-74
2022/01/11 04:19:40;;;;;;;43.28;18.42;;;;;;;0.32;88.82;103090.81;4957370;29;20468;-72
2022/01/11 04:22:07;;;;;;;40.95;17.60;;;;;;;0.29;89.28;103100.94;4957255;29;20027;-74
2022/01/11 04:24:33;;;;;;;40.28;17.70;;;;;;;0.23;88.90;103103.91;4957312;29;20027;-72
2022/01/11 04:26:59;;;;;;;41.05;18.63;;;;;;;0.24;88.97;103100.53;4957129;29;20090;-72
2022/01/11 04:29:24;;;;;;;45.05;19.25;;;;;;;0.27;89.58;103108.63;4957234;29;20031;-74
2022/01/11 04:31:51;;;;;;;38.65;17.52;;;;;;;0.21;89.50;103109.00;4957108;29;20034;-73
2022/01/11 04:34:17;;;;;;;42.92;19.92;;;;;;;0.16;89.59;103099.84;4957014;29;20528;-73
2022/01/11 04:36:47;;;;;;;45.25;18.75;;;;;;;0.14;89.85;103108.31;4956973;29;20115;-75
2022/01/11 04:39:14;;;;;;;43.85;19.80;;;;;;;0.12;89.90;103108.16;4957040;29;20392;-74
2022/01/11 04:41:40;;;;;;;43.10;18.92;;;;;;;0.15;89.76;103107.53;4956828;29;20034;-74
2022/01/11 04:44:08;;;;;;;46.88;20.50;;;;;;;0.13;89.35;103116.84;4956888;29;20027;-73
2022/01/11 04:46:33;;;;;;;43.60;19.05;;;;;;;0.13;89.42;103117.81;4956855;29;20035;-74
2022/01/11 04:49:02;;;;;;;44.50;18.08;;;;;;;0.12;89.75;103117.63;4956731;29;20027;-74
2022/01/11 04:51:28;;;;;;;41.03;17.83;;;;;;;0.12;89.62;103115.03;4956859;29;20038;-72
2022/01/11 04:53:55;;;;;;;45.78;18.05;;;;;;;0.07;90.01;103109.44;4956932;29;20023;-72
2022/01/11 04:56:21;;;;;;;50.53;21.58;;;;;;;-0.02;89.67;103113.81;4956655;29;20384;-72
2022/01/11 04:58:47;;;;;;;45.65;19.77;;;;;;;-0.01;89.55;103110.44;4956855;29;20384;-72
2022/01/11 05:01:12;;;;;;;45.28;19.33;;;;;;;-0.04;89.47;103095.50;4956760;29;20023;-72
2022/01/11 05:03:38;;;;;;;48.55;20.13;;;;;;;-0.08;89.78;103100.28;4956215;29;20051;-74
2022/01/11 05:06:04;;;;;;;43.40;18.42;;;;;;;-0.11;90.25;103103.50;4956121;28;20551;-73
2022/01/11 05:08:30;;;;;;;47.92;21.15;;;;;;;-0.13;90.15;103107.66;4956410;29;20086;-71
2022/01/11 05:10:55;;;;;;;54.15;21.13;;;;;;;-0.14;90.01;103105.81;4956225;29;20028;-74
2022/01/11 05:13:21;;;;;;;45.28;19.52;;;;;;;-0.13;90.32;103107.66;4956360;29;20023;-74
2022/01/11 05:15:47;;;;;;;50.80;21.67;;;;;;;-0.13;90.11;103102.47;4956205;29;20388;-73
2022/01/11 05:18:12;;;;;;;45.45;19.90;;;;;;;-0.11;89.79;103103.50;4956093;29;20059;-75
2022/01/11 05:20:39;;;;;;;49.15;19.00;;;;;;;-0.09;89.76;103103.63;4956329;29;20034;-73
2022/01/11 05:23:06;;;;;;;47.75;20.85;;;;;;;-0.13;89.80;103101.53;4956163;29;20165;-71
2022/01/11 05:25:32;;;;;;;48.08;21.67;;;;;;;-0.17;89.76;103110.75;4956273;29;20380;-74
2022/01/11 05:28:01;;;;;;;48.85;19.08;;;;;;;-0.22;90.06;103098.09;4956277;29;20027;-73
2022/01/11 05:30:28;;;;;;;50.25;21.17;;;;;;;-0.27;89.72;103097.69;4956019;29;20031;-73
2022/01/11 05:32:54;;;;;;;54.15;22.38;;;;;;;-0.28;90.16;103099.38;4955869;29;20400;-72
2022/01/11 05:35:22;;;;;;;49.28;18.77;;;;;;;-0.27;90.02;103089.91;4955974;29;20488;-74
2022/01/11 05:37:49;;;;;;;48.85;21.27;;;;;;;-0.30;89.87;103087.97;4955793;29;20034;-72
2022/01/11 05:40:15;;;;;;;54.90;23.23;;;;;;;-0.35;90.19;103096.09;4955600;29;20023;-73
2022/01/11 05:42:43;;;;;;;51.28;20.67;;;;;;;-0.42;90.26;103093.72;4955660;29;20027;-73
2022/01/11 05:45:09;;;;;;;50.80;20.70;;;;;;;-0.45;90.18;103099.53;4955484;29;20117;-72
2022/01/11 05:47:35;;;;;;;49.58;19.30;;;;;;;-0.48;90.37;103094.06;4955650;29;20035;-73
2022/01/11 05:50:03;;;;;;;49.33;20.25;;;;;;;-0.48;89.96;103098.34;4955704;29;20031;-73
2022/01/11 05:52:32;;;;;;;51.00;19.45;;;;;;;-0.50;90.29;103111.19;4955619;29;20400;-74
2022/01/11 05:54:57;;;;;;;49.97;21.20;;;;;;;-0.51;90.30;103118.09;4955497;29;20032;-73
2022/01/11 05:57:23;;;;;;;45.38;19.25;;;;;;;-0.46;90.64;103110.72;4955378;29;20039;-74
2022/01/11 05:59:48;;;;;;;44.88;18.35;;;;;;;-0.40;89.95;103112.94;4955440;29;20034;-74
2022/01/11 06:02:14;;;;;;;49.38;19.85;;;;;;;-0.36;90.07;103113.34;4955230;29;20118;-74
2022/01/11 06:04:40;;;;;;;47.17;19.38;;;;;;;-0.35;89.57;103124.66;4955423;29;20420;-74
2022/01/11 06:07:07;;;;;;;45.90;19.77;;;;;;;-0.36;89.51;103128.03;4955386;29;20055;-74
2022/01/11 06:09:32;;;;;;;45.40;18.52;;;;;;;-0.39;89.52;103130.34;4955343;29;20102;-74
2022/01/11 06:11:58;;;;;;;41.35;17.90;;;;;;;-0.40;89.75;103139.81;4955225;29;20512;-74
2022/01/11 06:14:23;;;;;;;49.53;20.77;;;;;;;-0.44;89.63;103135.13;4955296;29;20023;-74
2022/01/11 06:16:49;;;;;;;42.47;18.30;;;;;;;-0.42;89.75;103148.28;4954699;28;20024;-74
2022/01/11 06:19:14;;;;;;;42.47;18.80;;;;;;;-0.44;89.99;103145.50;4955167;29;20384;-74
2022/01/11 06:21:40;;;;;;;42.63;17.95;;;;;;;-0.43;89.52;103152.53;4955293;29;20062;-74
2022/01/11 06:24:07;;;;;;;42.25;18.33;;;;;;;-0.41;89.60;103160.47;4955350;29;20118;-74
2022/01/11 06:26:33;;;;;;;43.83;18.05;;;;;;;-0.38;89.57;103171.16;4955077;29;20038;-74
2022/01/11 06:29:00;;;;;;;41.28;18.10;;;;;;;-0.36;89.12;103169.59;4955098;29;20035;-74
2022/01/11 06:31:25;;;;;;;40.30;17.60;;;;;;;-0.35;89.13;103169.72;4955135;29;20441;-74
2022/01/11 06:33:51;;;;;;;42.55;18.15;;;;;;;-0.32;89.21;103170.00;4955227;29;20039;-74
2022/01/11 06:36:18;;;;;;;36.72;17.05;;;;;;;-0.29;88.94;103166.81;4955009;29;20031;-74
2022/01/11 06:38:44;;;;;;;41.40;17.10;;;;;;;-0.29;88.57;103159.00;4954996;28;20477;-74
2022/01/11 06:41:10;;;;;;;42.40;17.02;;;;;;;-0.28;88.67;103166.94;4954917;29;20038;-74
2022/01/11 06:43:36;;;;;;;40.90;18.05;;;;;;;-0.27;88.71;103179.13;4954924;29;20042;-73
2022/01/11 06:46:02;;;;;;;39.42;17.25;;;;;;;-0.33;88.70;103183.78;4954946;29;20035;-73
2022/01/11 06:48:27;;;;;;;38.13;16.70;;;;;;;-0.35;88.87;103181.81;4954746;29;20027;-73
2022/01/11 06:50:53;;;;;;;41.90;18.00;;;;;;;-0.42;88.57;103184.63;4954906;29;20031;-73
2022/01/11 06:53:18;;;;;;;39.22;16.20;;;;;;;-0.51;88.97;103176.91;4954804;29;20030;-73
2022/01/11 06:55:43;;;;;;;42.15;18.75;;;;;;;-0.56;89.33;103179.06;4954858;29;20028;-73
2022/01/11 06:58:09;;;;;;;44.75;20.63;;;;;;;-0.57;89.12;103173.72;4954866;29;20461;-72
2022/01/11 07:00:35;;;;;;;41.40;17.75;;;;;;;-0.68;89.48;103177.94;4954797;29;20551;-73
2022/01/11 07:03:00;;;;;;;41.40;18.73;;;;;;;-0.69;89.45;103185.53;4954356;29;20047;-72
2022/01/11 07:05:26;;;;;;;40.72;19.23;;;;;;;-0.70;89.06;103178.53;4954758;29;20035;-72
2022/01/11 07:07:51;;;;;;;36.47;16.98;;;;;;;-0.66;89.35;103183.25;4954769;29;20046;-72
2022/01/11 07:10:17;;;;;;;40.13;17.90;;;;;;;-0.64;89.64;103187.81;4954789;29;20071;-72
2022/01/11 07:12:42;;;;;;;36.45;16.90;;;;;;;-0.60;89.41;103194.19;4954546;29;20461;-72
2022/01/11 07:15:08;;;;;;;56.20;19.25;;;;;;;-0.57;89.39;103199.69;4954697;29;20086;-72
2022/01/11 07:17:34;;;;;;;41.70;18.10;;;;;;;-0.59;88.76;103188.25;4954403;29;20027;-73
2022/01/11 07:19:59;;;;;;;39.30;16.88;;;;;;;-0.61;89.41;103197.56;4937499;29;20032;-72
2022/01/11 07:22:25;;;;;;;42.58;19.00;;;;;;;-0.65;89.23;103204.16;4954619;29;20035;-72
2022/01/11 07:24:50;;;;;;;38.35;16.60;;;;;;;-0.66;89.18;103209.22;4954719;29;20061;-70
2022/01/11 07:27:16;;;;;;;39.00;16.50;;;;;;;-0.63;89.24;103207.81;4954512;29;20031;-72
2022/01/11 07:29:41;;;;;;;34.58;15.40;;;;;;;-0.62;89.27;103214.84;4958035;28;20027;-72
2022/01/11 07:32:07;;;;;;;35.38;16.52;;;;;;;-0.61;88.86;103216.66;4958131;29;20121;-70
2022/01/11 07:34:32;;;;;;;38.35;18.30;;;;;;;-0.67;89.87;103217.78;4958109;29;20373;-72
2022/01/11 07:36:58;;;;;;;37.65;16.70;;;;;;;-0.69;89.15;103220.22;4940877;29;20063;-70
2022/01/11 07:39:23;;;;;;;38.72;17.40;;;;;;;-0.77;89.45;103219.50;4958026;29;20488;-72
2022/01/11 07:41:50;;;;;;;35.42;16.58;;;;;;;-0.79;89.93;103225.31;4957952;29;20024;-70
2022/01/11 07:44:16;;;;;;;36.30;16.48;;;;;;;-0.79;89.90;103221.03;4957839;29;20038;-71
2022/01/11 07:46:42;;;;;;;35.38;15.60;;;;;;;-0.78;89.67;103234.91;4957934;29;20058;-69
2022/01/11 07:49:08;;;;;;;36.10;16.38;;;;;;;-0.82;89.80;103231.09;4957785;29;20465;-71
2022/01/11 07:51:34;;;;;;;36.78;17.27;;;;;;;-0.82;90.34;103232.78;4958001;29;20034;-71
2022/01/11 07:53:59;;;;;;;35.55;15.73;;;;;;;-0.80;90.03;103234.78;4957689;29;20384;-71
2022/01/11 07:56:25;;;;;;;36.28;16.10;;;;;;;-0.73;90.03;103238.84;4957516;29;20102;-71
2022/01/11 07:58:50;;;;;;;32.97;15.75;;;;;;;-0.66;89.87;103228.28;4940194;29;20472;-73
2022/01/11 08:01:19;;;;;;;33.70;17.20;;;;;;;-0.64;89.76;103228.44;4957614;29;20037;-73
2022/01/11 08:03:46;;;;;;;35.78;16.42;;;;;;;-0.57;89.67;103236.03;4957303;29;20042;-71
2022/01/11 08:06:12;;;;;;;35.17;17.52;;;;;;;-0.54;89.23;103236.34;4957489;29;20039;-72
2022/01/11 08:08:37;;;;;;;38.33;16.95;;;;;;;-0.51;89.33;103239.22;4940212;29;20492;-74
2022/01/11 08:11:03;;;;;;;31.00;15.10;;;;;;;-0.46;89.22;103237.97;4957448;29;20065;-70
2022/01/11 08:13:29;;;;;;;31.02;14.82;;;;;;;-0.34;89.13;103243.41;4957353;29;20028;-71
2022/01/11 08:15:54;;;;;;;29.27;15.07;;;;;;;-0.19;88.38;103243.91;4957283;29;20035;-70
2022/01/11 08:18:20;;;;;;;28.25;15.38;;;;;;;-0.08;88.18;103241.53;4940129;29;20046;-72
2022/01/11 08:20:45;;;;;;;30.85;14.40;;;;;;;0.05;88.19;103240.06;4957345;29;20031;-71
2022/01/11 08:23:11;;;;;;;27.02;14.55;;;;;;;0.16;87.32;103236.72;4957585;29;20423;-72
2022/01/11 08:25:37;;;;;;;25.50;13.52;;;;;;;0.36;86.98;103239.47;4957274;29;20033;-72
2022/01/11 08:28:03;;;;;;;24.65;13.85;;;;;;;0.49;86.38;103244.97;4957182;29;20520;-74
2022/01/11 08:30:29;;;;;;;25.38;12.93;;;;;;;0.69;86.42;103243.25;4957055;29;20042;-71
2022/01/11 08:32:54;;;;;;;25.92;13.70;;;;;;;0.89;84.54;103238.13;4957010;29;20380;-72
2022/01/11 08:35:19;;;;;;;26.02;13.52;;;;;;;1.06;83.89;103236.09;4957166;29;20399;-75
2022/01/11 08:37:45;;;;;;;24.23;13.13;;;;;;;1.21;84.00;103242.66;4956817;29;20038;-73
2022/01/11 08:40:12;;;;;;;23.45;12.73;;;;;;;1.37;83.11;103232.78;4956258;28;20038;-74
2022/01/11 08:42:37;;;;;;;26.73;12.32;;;;;;;1.58;82.83;103237.97;4956945;29;20031;-78
2022/01/11 08:45:04;;;;;;;23.58;13.93;;;;;;;1.68;81.93;103238.00;4956769;29;20034;-77
2022/01/11 08:47:32;;;;;;;26.80;13.43;;;;;;;1.62;81.03;103234.84;4959288;29;20034;-80
2022/01/11 08:50:00;;;;;;;22.33;12.48;;;;;;;1.51;81.27;103239.16;4956725;29;20038;-76
2022/01/11 08:52:29;;;;;;;25.02;14.13;;;;;;;1.45;82.24;103231.72;4956723;29;20032;-77
2022/01/11 08:54:56;;;;;;;24.77;12.68;;;;;;;1.62;81.87;103233.16;4956804;29;20027;-75
2022/01/11 08:57:21;;;;;;;24.92;13.07;;;;;;;1.95;81.29;103242.03;4956599;29;20032;-77
2022/01/11 08:59:48;;;;;;;22.40;11.57;;;;;;;2.31;81.26;103230.19;4956496;29;20027;-75
2022/01/11 09:02:13;;;;;;;23.67;12.85;;;;;;;2.55;80.04;103234.84;4956305;28;20138;-75
2022/01/11 09:04:39;;;;;;;26.38;12.93;;;;;;;2.65;79.20;103237.38;4956555;29;20027;-74
2022/01/11 09:07:06;;;;;;;21.30;12.68;;;;;;;2.72;78.67;103244.03;4956458;29;20023;-74
2022/01/11 09:09:32;;;;;;;21.90;12.40;;;;;;;2.72;78.26;103244.03;4956458;29;20476;-78
2022/01/11 09:12:02;;;;;;;23.38;12.52;;;;;;;2.75;77.79;103239.97;4956473;29;20041;-79
2022/01/11 09:14:28;;;;;;;23.77;13.18;;;;;;;2.94;77.93;103252.81;4956262;29;20465;-78
2022/01/11 09:16:54;;;;;;;22.42;12.85;;;;;;;3.20;77.63;103267.03;4956391;29;20038;-77
2022/01/11 09:19:20;;;;;;;20.33;11.73;;;;;;;3.54;76.90;103254.91;4956570;29;20079;-77
2022/01/11 09:21:45;;;;;;;23.75;11.52;;;;;;;3.81;75.26;103258.75;4956440;29;20524;-77
2022/01/11 09:24:13;;;;;;;23.00;10.85;;;;;;;4.06;75.50;103252.78;4956147;29;20035;-78
2022/01/11 09:26:41;;;;;;;23.35;11.85;;;;;;;4.03;73.71;103258.72;4956394;29;20027;-80
2022/01/11 09:29:07;;;;;;;21.85;12.02;;;;;;;3.93;73.92;103261.41;4956179;29;20389;-77
2022/01/11 09:31:32;;;;;;;22.25;11.73;;;;;;;3.93;75.56;103259.69;4956155;29;20039;-77
2022/01/11 09:33:59;;;;;;;20.33;11.40;;;;;;;4.00;74.51;103259.38;4956067;29;20031;-77
2022/01/11 09:36:24;;;;;;;20.75;11.48;;;;;;;4.09;73.87;103261.78;4955863;29;20113;-76
2022/01/11 09:38:50;;;;;;;19.98;11.57;;;;;;;4.07;73.43;103270.28;4955829;29;20155;-77
2022/01/11 09:41:16;;;;;;;20.90;11.80;;;;;;;4.40;74.84;103266.69;4955899;29;20031;-76
2022/01/11 09:43:42;;;;;;;19.35;11.38;;;;;;;4.81;71.25;103263.63;4955901;29;20031;-76
2022/01/11 09:46:08;;;;;;;19.58;10.75;;;;;;;5.15;70.30;103261.72;4955610;29;20121;-76
2022/01/11 09:48:35;;;;;;;20.52;11.73;;;;;;;5.28;70.86;103267.03;4938589;29;20531;-76
2022/01/11 09:51:00;;;;;;;17.60;11.00;;;;;;;5.33;70.80;103268.25;4955482;28;20130;-76
2022/01/11 09:53:28;;;;;;;16.50;10.13;;;;;;;5.30;68.79;103267.13;4955159;29;20146;-76
2022/01/11 09:55:53;;;;;;;15.75;9.95;;;;;;;5.35;69.90;103276.22;4955541;29;20027;-76
2022/01/11 09:58:19;;;;;;;16.23;10.63;;;;;;;5.21;70.24;103273.53;4955559;29;20050;-75
2022/01/11 10:00:45;;;;;;;17.42;10.60;;;;;;;4.81;70.08;103277.63;4955418;29;20031;-75
2022/01/11 10:03:11;;;;;;;18.55;10.25;;;;;;;4.55;71.12;103274.78;4955169;29;20054;-76
2022/01/11 10:05:37;;;;;;;18.95;10.13;;;;;;;4.42;72.01;103278.22;4938237;29;20027;-75
2022/01/11 10:08:23;;;;;;;20.30;10.98;;;;;;;4.73;73.05;103284.00;4955357;29;20551;-75
2022/01/11 10:10:49;;;;;;;20.02;11.00;;;;;;;4.99;71.94;103276.31;4955411;29;20027;-74
2022/01/11 10:13:47;;;;;;;17.80;10.73;;;;;;;5.02;71.35;103276.56;4955234;29;20030;-75
2022/01/11 10:16:21;;;;;;;18.65;10.57;;;;;;;4.92;71.83;103278.38;4877478;29;20041;-75
2022/01/11 10:18:47;;;;;;;17.75;9.88;;;;;;;4.79;71.16;103276.56;4877529;29;20406;-75
2022/01/11 10:21:39;;;;;;;19.45;10.85;;;;;;;4.50;72.31;103279.69;4862030;29;20033;-76
2022/01/11 10:24:27;;;;;;;18.70;11.40;;;;;;;4.17;73.57;103275.44;4877489;29;20563;-75
2022/01/11 10:26:56;;;;;;;20.58;10.98;;;;;;;4.00;73.67;103282.91;4871641;29;20060;-75
2022/01/11 10:29:40;;;;;;;17.05;9.88;;;;;;;3.94;73.86;103279.84;4877633;29;20108;-75
2022/01/11 10:32:25;;;;;;;18.25;10.23;;;;;;;3.83;75.45;103275.47;4877429;29;20045;-75
2022/01/11 10:34:54;;;;;;;19.80;10.45;;;;;;;3.76;75.32;103283.63;4877274;29;20041;-75
2022/01/11 10:37:36;;;;;;;19.42;10.40;;;;;;;3.76;75.33;103284.53;4877242;29;20144;-75
2022/01/11 10:40:07;;;;;;;19.58;11.25;;;;;;;3.70;74.89;103284.09;4877530;29;20065;-75
2022/01/11 10:42:38;;;;;;;16.65;10.13;;;;;;;3.76;75.80;103270.56;4877429;29;20037;-75
2022/01/11 10:45:07;;;;;;;21.20;10.15;;;;;;;3.82;75.36;103273.66;4877367;29;20132;-75
2022/01/11 10:47:38;;;;;;;19.30;10.55;;;;;;;3.85;75.19;103280.81;4877167;29;20029;-75
2022/01/11 10:50:35;;;;;;;19.20;10.70;;;;;;;3.90;74.98;103279.50;4877375;29;20040;-76
2022/01/11 10:53:04;;;;;;;19.73;9.80;;;;;;;3.91;75.62;103281.31;4951996;29;20146;-76
2022/01/11 10:55:32;;;;;;;17.98;9.80;;;;;;;3.94;75.97;103291.97;4954790;29;20028;-75
2022/01/11 10:58:03;;;;;;;15.35;9.68;;;;;;;3.98;76.12;103288.81;4954641;29;20035;-75
2022/01/11 11:00:35;;;;;;;22.43;11.00;;;;;;;4.10;75.46;103283.63;4954893;29;20039;-75
2022/01/11 11:03:08;;;;;;;21.48;10.18;;;;;;;4.18;74.19;103277.25;4955003;28;20154;-75
2022/01/11 11:05:58;;;;;;;17.77;9.60;;;;;;;4.28;74.18;103279.75;4958656;29;20043;-75
2022/01/11 11:08:34;;;;;;;18.83;9.50;;;;;;;4.36;74.47;103275.09;4958394;29;20523;-76
2022/01/11 11:11:06;;;;;;;19.17;10.00;;;;;;;4.39;73.06;103280.59;4958750;29;20110;-75
2022/01/11 11:13:34;;;;;;;20.80;9.82;;;;;;;4.38;73.03;103277.06;4958636;29;20031;-75
2022/01/11 11:16:22;;;;;;;18.45;10.40;;;;;;;4.43;73.33;103278.31;4958493;29;20027;-75
2022/01/11 11:18:52;;;;;;;19.88;9.35;;;;;;;4.50;73.33;103285.84;4958556;29;20033;-76
2022/01/11 11:21:25;;;;;;;20.27;9.30;;;;;;;4.55;72.74;103274.78;4958402;29;20031;-75